createdAt,value
2023-04-11T00:00:43.388Z,1.60
2023-04-11T00:01:43.429Z,1.90
2023-04-11T00:02:43.512Z,1.80
2023-04-11T00:03:43.696Z,2.10
2023-04-11T00:04:43.461Z,3.40
2023-04-11T00:05:43.370Z,3.00
2023-04-11T00:06:43.320Z,1.90
2023-04-11T00:07:43.322Z,3.80
2023-04-11T00:08:43.380Z,2.30
2023-04-11T00:09:43.272Z,1.60
2023-04-11T00:10:45.326Z,2.50
2023-04-11T00:11:43.288Z,2.80
2023-04-11T00:12:43.264Z,2.80
2023-04-11T00:13:43.315Z,2.00
2023-04-11T00:14:43.293Z,2.20
2023-04-11T00:15:43.230Z,1.30
2023-04-11T00:16:43.255Z,1.60
2023-04-11T00:17:43.221Z,2.70
2023-04-11T00:18:43.250Z,1.70
2023-04-11T00:19:43.197Z,2.00
2023-04-11T00:20:43.176Z,2.60
2023-04-11T00:21:43.275Z,2.50
2023-04-11T00:22:43.227Z,2.70
2023-04-11T00:23:43.192Z,1.50
2023-04-11T00:24:43.128Z,2.30
2023-04-11T00:25:43.140Z,2.00
2023-04-11T00:26:43.118Z,2.70
2023-04-11T00:27:43.150Z,2.70
2023-04-11T00:28:43.388Z,1.50
2023-04-11T00:29:43.083Z,1.90
2023-04-11T00:30:43.058Z,1.80
2023-04-11T00:31:43.120Z,1.20
2023-04-11T00:32:43.179Z,2.00
2023-04-11T00:33:43.041Z,2.30
2023-04-11T00:34:43.036Z,2.20
2023-04-11T00:35:43.040Z,2.30
2023-04-11T00:36:43.049Z,2.40
2023-04-11T00:37:43.073Z,2.90
2023-04-11T00:38:42.988Z,2.80
2023-04-11T00:39:42.959Z,2.40
2023-04-11T00:40:43.007Z,2.20
2023-04-11T00:41:43.000Z,3.00
2023-04-11T00:42:42.976Z,2.80
2023-04-11T00:43:42.923Z,1.90
2023-04-11T00:44:42.995Z,2.40
2023-04-11T00:45:43.044Z,2.20
2023-04-11T00:46:44.241Z,2.00
2023-04-11T00:47:42.956Z,2.70
2023-04-11T00:48:42.867Z,2.10
2023-04-11T00:49:42.872Z,2.00
2023-04-11T00:50:42.922Z,2.40
2023-04-11T00:51:42.843Z,2.60
2023-04-11T00:52:42.851Z,1.50
2023-04-11T00:53:42.816Z,2.50
2023-04-11T00:54:42.808Z,1.80
2023-04-11T00:55:42.856Z,1.90
2023-04-11T00:56:42.781Z,1.90
2023-04-11T00:57:42.783Z,3.10
2023-04-11T00:58:42.761Z,2.30
2023-04-11T00:59:42.783Z,1.50
2023-04-11T01:00:42.806Z,2.60
2023-04-11T01:01:42.837Z,2.50
2023-04-11T01:02:42.872Z,1.80
2023-04-11T01:03:42.823Z,2.30
2023-04-11T01:04:42.708Z,2.50
2023-04-11T01:05:42.759Z,1.70
2023-04-11T01:06:42.733Z,2.50
2023-04-11T01:07:42.671Z,2.60
2023-04-11T01:08:42.661Z,1.80
2023-04-11T01:09:42.661Z,2.20
2023-04-11T01:10:42.707Z,1.70
2023-04-11T01:11:42.693Z,2.10
2023-04-11T01:12:42.645Z,2.60
2023-04-11T01:13:42.628Z,3.80
2023-04-11T01:14:42.605Z,2.70
2023-04-11T01:15:42.667Z,2.70
2023-04-11T01:16:42.716Z,2.90
2023-04-11T01:17:42.630Z,2.90
2023-04-11T01:18:42.595Z,2.20
2023-04-11T01:19:42.549Z,2.60
2023-04-11T01:20:42.617Z,2.10
2023-04-11T01:21:42.525Z,2.30
2023-04-11T01:22:42.516Z,3.70
2023-04-11T01:23:42.525Z,2.60
2023-04-11T01:24:42.495Z,1.60
2023-04-11T01:25:42.531Z,3.00
2023-04-11T01:26:42.528Z,2.50
2023-04-11T01:27:45.501Z,2.50
2023-04-11T01:28:42.450Z,3.20
2023-04-11T01:29:42.448Z,2.70
2023-04-11T01:30:42.603Z,3.30
2023-04-11T01:31:42.425Z,3.70
2023-04-11T01:32:42.514Z,4.00
2023-04-11T01:33:42.398Z,3.10
2023-04-11T01:34:42.451Z,3.40
2023-04-11T01:35:42.406Z,2.90
2023-04-11T01:36:42.434Z,3.10
2023-04-11T01:37:42.432Z,3.20
2023-04-11T01:38:42.360Z,2.40
2023-04-11T01:39:42.341Z,4.20
2023-04-11T01:40:42.326Z,2.90
2023-04-11T01:41:42.387Z,3.20
2023-04-11T01:42:42.362Z,1.90
2023-04-11T01:43:42.300Z,2.80
2023-04-11T01:44:42.292Z,3.70
2023-04-11T01:45:42.275Z,2.90
2023-04-11T01:46:42.323Z,2.30
2023-04-11T01:47:42.425Z,3.80
2023-04-11T01:48:42.307Z,2.40
2023-04-11T01:49:42.241Z,2.70
2023-04-11T01:50:42.227Z,4.70
2023-04-11T01:51:42.288Z,3.20
2023-04-11T01:52:42.254Z,3.00
2023-04-11T01:53:42.248Z,2.70
2023-04-11T01:54:42.201Z,3.10
2023-04-11T01:55:42.173Z,3.20
2023-04-11T01:56:42.162Z,3.60
2023-04-11T01:57:42.147Z,3.20
2023-04-11T01:58:42.141Z,4.20
2023-04-11T01:59:42.208Z,2.70
2023-04-11T02:00:42.156Z,3.90
2023-04-11T02:01:42.196Z,2.50
2023-04-11T02:02:42.259Z,2.50
2023-04-11T02:03:42.163Z,2.40
2023-04-11T02:04:42.143Z,3.20
2023-04-11T02:05:42.063Z,3.60
2023-04-11T02:06:42.065Z,4.30
2023-04-11T02:07:42.068Z,3.90
2023-04-11T02:08:42.033Z,4.80
2023-04-11T02:09:42.077Z,3.10
2023-04-11T02:10:42.005Z,3.90
2023-04-11T02:11:41.997Z,3.60
2023-04-11T02:12:41.981Z,2.50
2023-04-11T02:13:41.989Z,2.60
2023-04-11T02:14:42.020Z,3.70
2023-04-11T02:15:41.990Z,4.10
2023-04-11T02:16:41.949Z,2.80
2023-04-11T02:17:41.985Z,2.20
2023-04-11T02:18:41.930Z,2.50
2023-04-11T02:19:42.021Z,2.90
2023-04-11T02:20:41.913Z,3.90
2023-04-11T02:21:41.957Z,2.70
2023-04-11T02:22:41.888Z,4.10
2023-04-11T02:23:41.884Z,4.60
2023-04-11T02:24:41.868Z,2.90
2023-04-11T02:25:41.883Z,3.00
2023-04-11T02:26:41.915Z,2.00
2023-04-11T02:27:41.820Z,4.00
2023-04-11T02:28:41.810Z,4.50
2023-04-11T02:29:42.020Z,3.10
2023-04-11T02:30:41.911Z,2.00
2023-04-11T02:31:41.915Z,1.80
2023-04-11T02:32:41.851Z,3.00
2023-04-11T02:33:41.777Z,3.20
2023-04-11T02:34:41.758Z,4.00
2023-04-11T02:35:41.752Z,4.50
2023-04-11T02:36:41.802Z,2.80
2023-04-11T02:37:41.748Z,3.00
2023-04-11T02:38:41.713Z,3.60
2023-04-11T02:39:41.704Z,2.60
2023-04-11T02:40:41.697Z,2.30
2023-04-11T02:41:41.748Z,4.60
2023-04-11T02:42:41.672Z,3.50
2023-04-11T02:43:41.722Z,5.30
2023-04-11T02:44:41.664Z,4.90
2023-04-11T02:45:41.647Z,4.20
2023-04-11T02:46:41.714Z,6.00
2023-04-11T02:47:41.664Z,5.20
2023-04-11T02:48:41.685Z,3.20
2023-04-11T02:49:41.591Z,3.60
2023-04-11T02:50:41.595Z,5.70
2023-04-11T02:51:41.643Z,4.30
2023-04-11T02:52:41.575Z,4.30
2023-04-11T02:53:41.629Z,2.50
2023-04-11T02:54:41.559Z,3.60
2023-04-11T02:55:41.532Z,4.60
2023-04-11T02:56:41.541Z,2.90
2023-04-11T02:57:41.513Z,4.70
2023-04-11T02:58:41.543Z,2.90
2023-04-11T02:59:41.551Z,4.20
2023-04-11T03:00:41.540Z,4.20
2023-04-11T03:01:41.617Z,4.70
2023-04-11T03:02:41.815Z,6.50
2023-04-11T03:03:41.538Z,5.50
2023-04-11T03:04:41.447Z,5.90
2023-04-11T03:05:41.431Z,5.10
2023-04-11T03:06:41.409Z,3.60
2023-04-11T03:07:41.419Z,4.00
2023-04-11T03:08:41.486Z,3.90
2023-04-11T03:09:41.416Z,4.90
2023-04-11T03:10:41.438Z,4.20
2023-04-11T03:11:41.379Z,6.60
2023-04-11T03:12:41.361Z,4.70
2023-04-11T03:13:41.406Z,4.20
2023-04-11T03:14:41.326Z,5.00
2023-04-11T03:15:41.402Z,6.00
2023-04-11T03:16:41.328Z,3.60
2023-04-11T03:17:41.315Z,5.10
2023-04-11T03:18:41.357Z,4.70
2023-04-11T03:19:41.288Z,5.60
2023-04-11T03:20:41.272Z,6.00
2023-04-11T03:21:41.304Z,5.30
2023-04-11T03:22:41.248Z,4.00
2023-04-11T03:23:41.334Z,4.10
2023-04-11T03:24:41.256Z,4.90
2023-04-11T03:25:41.221Z,6.50
2023-04-11T03:26:41.214Z,4.70
2023-04-11T03:27:41.195Z,5.40
2023-04-11T03:28:41.266Z,5.70
2023-04-11T03:29:41.197Z,5.90
2023-04-11T03:30:41.180Z,7.40
2023-04-11T03:31:41.246Z,6.40
2023-04-11T03:32:41.172Z,6.30
2023-04-11T03:33:41.202Z,7.50
2023-04-11T03:34:41.136Z,6.50
2023-04-11T03:35:41.153Z,4.20
2023-04-11T03:36:41.122Z,7.40
2023-04-11T03:37:41.105Z,9.60
2023-04-11T03:38:41.153Z,7.70
2023-04-11T03:39:41.086Z,5.20
2023-04-11T03:40:41.135Z,5.10
2023-04-11T03:41:41.117Z,7.60
2023-04-11T03:42:41.086Z,5.70
2023-04-11T03:43:41.040Z,5.80
2023-04-11T03:44:41.025Z,8.30
2023-04-11T03:45:41.035Z,9.90
2023-04-11T03:46:41.115Z,6.10
2023-04-11T03:47:41.039Z,7.40
2023-04-11T03:48:41.024Z,8.00
2023-04-11T03:49:40.981Z,9.00
2023-04-11T03:50:40.975Z,5.70
2023-04-11T03:51:41.028Z,6.70
2023-04-11T03:52:40.950Z,7.40
2023-04-11T03:53:40.933Z,9.50
2023-04-11T03:54:40.960Z,8.30
2023-04-11T03:55:40.907Z,8.80
2023-04-11T03:56:40.980Z,8.70
2023-04-11T03:57:40.903Z,8.30
2023-04-11T03:58:40.945Z,7.30
2023-04-11T03:59:40.884Z,6.60
2023-04-11T04:00:40.883Z,7.60
2023-04-11T04:01:40.958Z,6.20
2023-04-11T04:02:40.943Z,7.60
2023-04-11T04:03:41.158Z,7.50
2023-04-11T04:04:40.921Z,7.80
2023-04-11T04:05:40.806Z,6.60
2023-04-11T04:06:40.806Z,4.50
2023-04-11T04:07:40.871Z,7.10
2023-04-11T04:08:40.779Z,8.90
2023-04-11T04:09:40.757Z,7.50
2023-04-11T04:10:40.737Z,7.30
2023-04-11T04:11:40.810Z,5.90
2023-04-11T04:12:40.759Z,8.40
2023-04-11T04:13:40.732Z,7.70
2023-04-11T04:14:40.722Z,6.90
2023-04-11T04:15:40.698Z,6.40
2023-04-11T04:16:40.900Z,7.00
2023-04-11T04:17:40.812Z,9.30
2023-04-11T04:18:40.682Z,6.80
2023-04-11T04:19:40.648Z,6.60
2023-04-11T04:20:40.674Z,6.90
2023-04-11T04:21:40.628Z,5.70
2023-04-11T04:22:40.676Z,7.60
2023-04-11T04:23:40.615Z,7.00
2023-04-11T04:24:40.596Z,7.10
2023-04-11T04:25:40.617Z,4.10
2023-04-11T04:26:40.588Z,5.10
2023-04-11T04:27:40.637Z,4.80
2023-04-11T04:28:40.570Z,4.10
2023-04-11T04:29:40.561Z,4.20
2023-04-11T04:30:40.528Z,2.30
2023-04-11T04:31:40.586Z,2.80
2023-04-11T04:32:40.631Z,2.40
2023-04-11T04:33:40.524Z,2.50
2023-04-11T04:34:40.488Z,2.20
2023-04-11T04:35:40.527Z,2.30
2023-04-11T04:36:40.482Z,2.80
2023-04-11T04:37:40.536Z,1.80
2023-04-11T04:38:40.461Z,2.10
2023-04-11T04:39:40.459Z,2.60
2023-04-11T04:40:40.456Z,2.20
2023-04-11T04:41:40.428Z,2.40
2023-04-11T04:42:40.409Z,2.60
2023-04-11T04:43:40.469Z,2.50
2023-04-11T04:44:40.401Z,1.70
2023-04-11T04:45:40.449Z,3.20
2023-04-11T04:46:40.376Z,2.70
2023-04-11T04:47:40.476Z,3.40
2023-04-11T04:48:40.348Z,2.80
2023-04-11T04:49:40.332Z,3.00
2023-04-11T04:50:40.325Z,4.70
2023-04-11T04:51:40.329Z,3.10
2023-04-11T04:52:40.389Z,3.90
2023-04-11T04:53:40.283Z,2.60
2023-04-11T04:54:40.282Z,1.80
2023-04-11T04:55:40.271Z,4.20
2023-04-11T04:56:40.258Z,3.30
2023-04-11T04:57:40.318Z,2.50
2023-04-11T04:58:40.267Z,3.30
2023-04-11T04:59:40.263Z,3.10
2023-04-11T05:00:40.309Z,3.70
2023-04-11T05:01:40.501Z,2.70
2023-04-11T05:02:40.276Z,3.30
2023-04-11T05:03:40.361Z,2.30
2023-04-11T05:04:40.176Z,3.40
2023-04-11T05:05:40.164Z,3.10
2023-04-11T05:06:40.176Z,2.60
2023-04-11T05:07:40.169Z,3.90
2023-04-11T05:08:40.201Z,2.60
2023-04-11T05:09:40.128Z,2.90
2023-04-11T05:10:40.104Z,3.10
2023-04-11T05:11:40.107Z,3.20
2023-04-11T05:12:40.099Z,3.00
2023-04-11T05:13:40.188Z,3.70
2023-04-11T05:14:40.073Z,4.80
2023-04-11T05:15:40.069Z,3.00
2023-04-11T05:16:40.171Z,2.60
2023-04-11T05:17:40.195Z,2.30
2023-04-11T05:18:40.039Z,2.00
2023-04-11T05:19:40.012Z,2.40
2023-04-11T05:20:40.081Z,2.60
2023-04-11T05:21:40.029Z,3.30
2023-04-11T05:22:40.049Z,3.40
2023-04-11T05:23:39.962Z,4.10
2023-04-11T05:24:39.986Z,4.20
2023-04-11T05:25:39.957Z,3.50
2023-04-11T05:26:39.959Z,3.60
2023-04-11T05:27:39.987Z,4.00
2023-04-11T05:28:39.922Z,4.00
2023-04-11T05:29:39.930Z,3.30
2023-04-11T05:30:40.127Z,4.20
2023-04-11T05:31:39.945Z,3.10
2023-04-11T05:32:39.942Z,2.30
2023-04-11T05:33:39.936Z,2.90
2023-04-11T05:34:39.870Z,2.60
2023-04-11T05:35:39.872Z,4.50
2023-04-11T05:36:39.840Z,3.00
2023-04-11T05:37:39.917Z,3.40
2023-04-11T05:38:39.883Z,2.90
2023-04-11T05:39:39.847Z,2.40
2023-04-11T05:40:40.290Z,3.20
2023-04-11T05:41:39.848Z,4.50
2023-04-11T05:42:39.789Z,3.30
2023-04-11T05:43:39.779Z,3.20
2023-04-11T05:44:39.777Z,4.20
2023-04-11T05:45:39.869Z,4.30
2023-04-11T05:46:39.787Z,4.20
2023-04-11T05:47:39.801Z,4.40
2023-04-11T05:48:39.780Z,5.20
2023-04-11T05:49:39.729Z,4.10
2023-04-11T05:50:39.749Z,3.00
2023-04-11T05:51:39.779Z,4.70
2023-04-11T05:52:39.690Z,4.00
2023-04-11T05:53:39.692Z,3.30
2023-04-11T05:54:39.660Z,4.80
2023-04-11T05:55:39.644Z,4.10
2023-04-11T05:56:39.732Z,4.10
2023-04-11T05:57:39.641Z,5.20
2023-04-11T05:58:39.628Z,3.60
2023-04-11T05:59:39.638Z,3.60
2023-04-11T06:00:39.598Z,2.80
2023-04-11T06:01:39.704Z,3.00
2023-04-11T06:02:39.715Z,4.80
2023-04-11T06:03:39.644Z,3.50
2023-04-11T06:04:39.812Z,3.40
2023-04-11T06:05:39.538Z,3.60
2023-04-11T06:06:39.589Z,4.50
2023-04-11T06:07:39.528Z,2.90
2023-04-11T06:08:39.501Z,4.40
2023-04-11T06:09:39.501Z,2.50
2023-04-11T06:10:39.492Z,3.20
2023-04-11T06:11:39.547Z,5.10
2023-04-11T06:12:39.537Z,4.20
2023-04-11T06:13:39.484Z,4.40
2023-04-11T06:14:40.619Z,4.10
2023-04-11T06:15:39.500Z,3.80
2023-04-11T06:16:39.476Z,4.70
2023-04-11T06:17:39.496Z,5.60
2023-04-11T06:18:39.406Z,4.90
2023-04-11T06:19:39.402Z,4.80
2023-04-11T06:20:39.401Z,3.50
2023-04-11T06:21:39.456Z,3.90
2023-04-11T06:22:39.417Z,5.20
2023-04-11T06:23:39.369Z,4.90
2023-04-11T06:24:39.354Z,4.20
2023-04-11T06:25:39.379Z,4.80
2023-04-11T06:26:39.313Z,3.40
2023-04-11T06:27:39.413Z,3.40
2023-04-11T06:28:39.291Z,3.80
2023-04-11T06:29:39.298Z,4.70
2023-04-11T06:30:39.414Z,5.60
2023-04-11T06:31:39.466Z,4.70
2023-04-11T06:32:39.381Z,3.60
2023-04-11T06:33:39.259Z,4.20
2023-04-11T06:34:39.248Z,2.90
2023-04-11T06:35:39.317Z,4.40
2023-04-11T06:36:39.249Z,2.80
2023-04-11T06:37:39.271Z,4.30
2023-04-11T06:38:39.210Z,5.90
2023-04-11T06:39:39.253Z,7.00
2023-04-11T06:40:39.291Z,7.00
2023-04-11T06:41:39.171Z,6.00
2023-04-11T06:42:39.186Z,5.30
2023-04-11T06:43:39.139Z,5.80
2023-04-11T06:44:39.279Z,3.10
2023-04-11T06:45:39.125Z,5.30
2023-04-11T06:46:39.164Z,5.90
2023-04-11T06:47:39.168Z,5.40
2023-04-11T06:48:39.140Z,5.80
2023-04-11T06:49:39.203Z,4.50
2023-04-11T06:50:39.065Z,7.60
2023-04-11T06:51:39.072Z,4.20
2023-04-11T06:52:39.068Z,5.60
2023-04-11T06:53:39.033Z,5.50
2023-04-11T06:54:39.511Z,6.80
2023-04-11T06:55:39.015Z,5.90
2023-04-11T06:56:39.021Z,6.00
2023-04-11T06:57:39.085Z,4.20
2023-04-11T06:58:38.982Z,6.10
2023-04-11T06:59:38.977Z,4.20
2023-04-11T07:00:38.992Z,5.70
2023-04-11T07:01:39.080Z,4.80
2023-04-11T07:02:39.410Z,4.30
2023-04-11T07:03:39.252Z,3.90
2023-04-11T07:04:39.197Z,4.00
2023-04-11T07:05:39.668Z,5.90
2023-04-11T07:06:38.922Z,5.20
2023-04-11T07:07:38.949Z,6.10
2023-04-11T07:08:38.918Z,4.70
2023-04-11T07:09:38.974Z,5.20
2023-04-11T07:10:38.889Z,4.20
2023-04-11T07:11:38.867Z,4.00
2023-04-11T07:12:38.892Z,5.20
2023-04-11T07:13:38.825Z,4.00
2023-04-11T07:14:38.821Z,4.10
2023-04-11T07:15:38.848Z,4.50
2023-04-11T07:16:38.934Z,4.90
2023-04-11T07:17:38.896Z,4.80
2023-04-11T07:18:38.767Z,4.40
2023-04-11T07:19:38.755Z,3.20
2023-04-11T07:20:38.823Z,3.10
2023-04-11T07:21:38.740Z,4.40
2023-04-11T07:22:38.736Z,4.60
2023-04-11T07:23:38.720Z,4.20
2023-04-11T07:24:38.749Z,4.40
2023-04-11T07:25:38.771Z,4.30
2023-04-11T07:26:38.957Z,4.80
2023-04-11T07:27:38.681Z,4.40
2023-04-11T07:28:38.691Z,5.10
2023-04-11T07:29:38.655Z,3.80
2023-04-11T07:30:38.672Z,4.00
2023-04-11T07:31:38.689Z,4.10
2023-04-11T07:32:38.693Z,5.00
2023-04-11T07:33:38.657Z,4.60
2023-04-11T07:34:38.611Z,4.50
2023-04-11T07:35:38.697Z,4.20
2023-04-11T07:36:38.645Z,3.40
2023-04-11T07:37:38.630Z,5.80
2023-04-11T07:38:38.572Z,3.40
2023-04-11T07:39:38.619Z,4.30
2023-04-11T07:40:38.559Z,5.60
2023-04-11T07:41:38.536Z,4.00
2023-04-11T07:42:38.573Z,5.20
2023-04-11T07:43:38.523Z,5.30
2023-04-11T07:44:38.547Z,5.50
2023-04-11T07:45:38.509Z,5.00
2023-04-11T07:46:38.630Z,7.50
2023-04-11T07:47:38.549Z,6.00
2023-04-11T07:48:38.483Z,5.40
2023-04-11T07:49:38.454Z,5.40
2023-04-11T07:50:38.428Z,5.00
2023-04-11T07:51:38.520Z,5.50
2023-04-11T07:52:38.439Z,5.40
2023-04-11T07:53:38.427Z,4.60
2023-04-11T07:54:38.400Z,4.20
2023-04-11T07:55:38.387Z,4.30
2023-04-11T07:56:38.393Z,2.90
2023-04-11T07:57:38.425Z,3.80
2023-04-11T07:58:38.366Z,3.90
2023-04-11T07:59:38.350Z,4.00
2023-04-11T08:00:38.339Z,5.00
2023-04-11T08:01:38.404Z,4.80
2023-04-11T08:02:38.478Z,4.80
2023-04-11T08:03:38.403Z,4.60
2023-04-11T08:04:38.396Z,4.90
2023-04-11T08:05:38.273Z,3.20
2023-04-11T08:06:38.326Z,3.70
2023-04-11T08:07:38.256Z,4.60
2023-04-11T08:08:38.268Z,4.80
2023-04-11T08:09:38.316Z,4.30
2023-04-11T08:10:38.226Z,4.80
2023-04-11T08:11:38.273Z,3.60
2023-04-11T08:12:38.226Z,3.40
2023-04-11T08:13:38.197Z,3.00
2023-04-11T08:14:38.232Z,2.80
2023-04-11T08:15:38.203Z,4.20
2023-04-11T08:16:38.337Z,3.70
2023-04-11T08:17:38.304Z,4.50
2023-04-11T08:18:38.141Z,3.60
2023-04-11T08:19:38.189Z,3.20
2023-04-11T08:20:38.114Z,4.20
2023-04-11T08:21:38.181Z,3.10
2023-04-11T08:22:38.098Z,2.20
2023-04-11T08:23:38.157Z,4.40
2023-04-11T08:24:38.153Z,3.70
2023-04-11T08:25:38.074Z,3.80
2023-04-11T08:26:38.057Z,3.00
2023-04-11T08:27:38.141Z,3.70
2023-04-11T08:28:38.092Z,4.10
2023-04-11T08:29:38.045Z,2.50
2023-04-11T08:30:38.029Z,2.70
2023-04-11T08:31:38.037Z,3.30
2023-04-11T08:32:38.060Z,3.90
2023-04-11T08:33:37.995Z,4.30
2023-04-11T08:34:38.070Z,2.80
2023-04-11T08:35:37.985Z,2.80
2023-04-11T08:36:37.972Z,4.10
2023-04-11T08:37:37.921Z,3.00
2023-04-11T08:38:37.931Z,2.30
2023-04-11T08:39:37.994Z,2.30
2023-04-11T08:40:37.921Z,4.40
2023-04-11T08:41:37.889Z,3.20
2023-04-11T08:42:37.995Z,3.80
2023-04-11T08:43:37.884Z,2.40
2023-04-11T08:44:37.871Z,3.30
2023-04-11T08:45:37.875Z,3.40
2023-04-11T08:46:37.924Z,5.70
2023-04-11T08:47:37.910Z,2.00
2023-04-11T08:48:37.819Z,3.90
2023-04-11T08:49:37.813Z,3.90
2023-04-11T08:50:37.795Z,4.00
2023-04-11T08:51:37.791Z,3.90
2023-04-11T08:52:37.921Z,2.70
2023-04-11T08:53:37.778Z,3.20
2023-04-11T08:54:37.769Z,2.90
2023-04-11T08:55:37.777Z,2.40
2023-04-11T08:56:37.777Z,4.70
2023-04-11T08:57:37.737Z,4.50
2023-04-11T08:58:37.770Z,4.30
2023-04-11T08:59:37.712Z,3.80
2023-04-11T09:00:37.717Z,3.30
2023-04-11T09:01:37.786Z,3.00
2023-04-11T09:02:37.763Z,4.10
2023-04-11T09:03:37.803Z,4.50
2023-04-11T09:04:37.717Z,3.30
2023-04-11T09:05:37.639Z,3.40
2023-04-11T09:06:37.671Z,4.40
2023-04-11T09:07:37.611Z,5.90
2023-04-11T09:08:37.725Z,3.90
2023-04-11T09:09:38.081Z,2.90
2023-04-11T09:10:37.779Z,4.20
2023-04-11T09:11:37.894Z,2.80
2023-04-11T09:12:37.573Z,2.60
2023-04-11T09:13:37.533Z,2.20
2023-04-11T09:14:37.733Z,3.70
2023-04-11T09:15:37.554Z,3.30
2023-04-11T09:16:37.551Z,3.20
2023-04-11T09:17:37.511Z,4.50
2023-04-11T09:18:37.597Z,2.30
2023-04-11T09:19:37.561Z,4.30
2023-04-11T09:20:37.481Z,3.50
2023-04-11T09:21:37.515Z,3.50
2023-04-11T09:22:37.457Z,3.30
2023-04-11T09:23:37.431Z,4.00
2023-04-11T09:24:37.511Z,3.10
2023-04-11T09:25:37.433Z,4.20
2023-04-11T09:26:37.420Z,2.80
2023-04-11T09:27:37.523Z,3.30
2023-04-11T09:28:37.434Z,4.40
2023-04-11T09:29:37.509Z,3.60
2023-04-11T09:30:37.411Z,3.00
2023-04-11T09:31:37.415Z,3.30
2023-04-11T09:32:37.684Z,2.90
2023-04-11T09:33:37.395Z,3.00
2023-04-11T09:34:37.391Z,4.80
2023-04-11T09:35:37.352Z,3.50
2023-04-11T09:36:37.371Z,4.30
2023-04-11T09:37:37.309Z,4.80
2023-04-11T09:38:37.294Z,3.40
2023-04-11T09:39:37.271Z,3.00
2023-04-11T09:40:37.290Z,3.20
2023-04-11T09:41:37.320Z,3.70
2023-04-11T09:42:37.252Z,3.60
2023-04-11T09:43:37.226Z,2.10
2023-04-11T09:44:37.231Z,4.50
2023-04-11T09:45:47.692Z,3.00
2023-04-11T09:46:38.316Z,3.20
2023-04-11T09:47:37.221Z,3.40
2023-04-11T09:48:46.682Z,3.20
2023-04-11T09:49:38.197Z,5.30
2023-04-11T09:50:37.182Z,3.70
2023-04-11T09:51:37.421Z,4.20
2023-04-11T09:52:37.215Z,3.70
2023-04-11T09:53:37.222Z,3.60
2023-04-11T09:54:37.180Z,3.20
2023-04-11T09:55:37.105Z,3.10
2023-04-11T09:56:37.114Z,3.20
2023-04-11T09:57:37.090Z,2.90
2023-04-11T09:58:37.079Z,2.90
2023-04-11T09:59:37.131Z,2.50
2023-04-11T10:00:37.090Z,4.40
2023-04-11T10:01:37.161Z,4.70
2023-04-11T10:02:37.152Z,2.90
2023-04-11T10:03:37.067Z,2.80
2023-04-11T10:04:37.136Z,3.70
2023-04-11T10:05:37.009Z,2.60
2023-04-11T10:06:37.013Z,4.80
2023-04-11T10:07:37.008Z,3.60
2023-04-11T10:08:36.997Z,3.00
2023-04-11T10:09:37.056Z,4.50
2023-04-11T10:10:36.953Z,3.50
2023-04-11T10:11:37.015Z,3.80
2023-04-11T10:12:37.038Z,2.40
2023-04-11T10:13:36.937Z,4.00
2023-04-11T10:14:36.940Z,3.20
2023-04-11T10:15:36.917Z,4.20
2023-04-11T10:16:36.917Z,3.90
2023-04-11T10:17:36.999Z,3.70
2023-04-11T10:18:36.884Z,2.70
2023-04-11T10:19:36.871Z,3.00
2023-04-11T10:20:36.864Z,3.90
2023-04-11T10:21:36.918Z,3.80
2023-04-11T10:22:36.844Z,4.20
2023-04-11T10:23:36.816Z,3.80
2023-04-11T10:24:36.885Z,3.10
2023-04-11T10:25:36.851Z,3.30
2023-04-11T10:26:36.808Z,3.30
2023-04-11T10:27:36.844Z,3.00
2023-04-11T10:28:36.843Z,3.20
2023-04-11T10:29:36.749Z,2.50
2023-04-11T10:30:36.828Z,4.10
2023-04-11T10:31:36.799Z,4.50
2023-04-11T10:32:36.790Z,3.90
2023-04-11T10:33:36.800Z,3.70
2023-04-11T10:34:36.722Z,5.40
2023-04-11T10:35:37.151Z,3.80
2023-04-11T10:36:36.714Z,4.70
2023-04-11T10:37:36.692Z,3.50
2023-04-11T10:38:36.758Z,3.60
2023-04-11T10:39:36.646Z,3.70
2023-04-11T10:40:36.621Z,2.50
2023-04-11T10:41:36.654Z,3.80
2023-04-11T10:42:36.662Z,3.60
2023-04-11T10:43:39.086Z,4.10
2023-04-11T10:44:36.670Z,4.90
2023-04-11T10:45:37.608Z,2.60
2023-04-11T10:46:36.634Z,2.50
2023-04-11T10:47:36.664Z,3.70
2023-04-11T10:48:36.548Z,2.80
2023-04-11T10:49:36.565Z,3.10
2023-04-11T10:50:36.527Z,2.70
2023-04-11T10:51:36.542Z,3.00
2023-04-11T10:52:36.557Z,3.40
2023-04-11T10:53:36.676Z,3.30
2023-04-11T10:54:36.626Z,2.70
2023-04-11T10:55:36.480Z,3.40
2023-04-11T10:56:36.482Z,2.80
2023-04-11T10:57:36.461Z,3.10
2023-04-11T10:58:36.517Z,2.70
2023-04-11T10:59:36.520Z,3.30
2023-04-11T11:00:36.500Z,2.30
2023-04-11T11:01:42.941Z,3.60
2023-04-11T11:02:37.924Z,2.50
2023-04-11T11:03:36.592Z,4.00
2023-04-11T11:04:36.623Z,1.40
2023-04-11T11:05:36.436Z,3.20
2023-04-11T11:06:46.072Z,4.20
2023-04-11T11:07:37.335Z,3.50
2023-04-11T11:08:36.400Z,2.90
2023-04-11T11:09:36.379Z,2.90
2023-04-11T11:10:36.320Z,3.30
2023-04-11T11:11:36.291Z,2.90
2023-04-11T11:12:36.293Z,4.20
2023-04-11T11:13:36.401Z,3.00
2023-04-11T11:14:36.275Z,4.10
2023-04-11T11:15:36.262Z,3.70
2023-04-11T11:16:36.298Z,2.70
2023-04-11T11:17:36.265Z,4.30
2023-04-11T11:18:36.236Z,3.80
2023-04-11T11:19:36.300Z,3.70
2023-04-11T11:20:36.198Z,4.30
2023-04-11T11:21:36.190Z,2.50
2023-04-11T11:22:36.174Z,2.50
2023-04-11T11:23:36.471Z,2.50
2023-04-11T11:24:36.257Z,3.60
2023-04-11T11:25:36.175Z,3.30
2023-04-11T11:26:36.135Z,4.00
2023-04-11T11:27:36.127Z,2.40
2023-04-11T11:28:36.144Z,3.60
2023-04-11T11:29:36.175Z,3.90
2023-04-11T11:30:36.121Z,3.20
2023-04-11T11:31:36.091Z,2.80
2023-04-11T11:32:36.105Z,2.50
2023-04-11T11:33:36.075Z,2.90
2023-04-11T11:34:36.108Z,1.70
2023-04-11T11:35:36.045Z,3.00
2023-04-11T11:36:36.110Z,3.10
2023-04-11T11:37:36.021Z,2.10
2023-04-11T11:38:36.002Z,2.80
2023-04-11T11:39:36.062Z,2.60
2023-04-11T11:40:36.007Z,2.30
2023-04-11T11:41:35.980Z,2.60
2023-04-11T11:42:35.965Z,3.10
2023-04-11T11:43:35.990Z,2.90
2023-04-11T11:44:36.013Z,3.00
2023-04-11T11:45:36.012Z,4.10
2023-04-11T11:46:35.962Z,2.00
2023-04-11T11:47:35.957Z,2.40
2023-04-11T11:48:35.902Z,2.80
2023-04-11T11:49:35.976Z,2.70
2023-04-11T11:50:35.915Z,2.20
2023-04-11T11:51:35.883Z,2.90
2023-04-11T11:52:35.881Z,3.00
2023-04-11T11:53:35.863Z,2.70
2023-04-11T11:54:35.849Z,3.90
2023-04-11T11:55:35.927Z,2.80
2023-04-11T11:56:35.848Z,3.80
2023-04-11T11:57:35.814Z,2.70
2023-04-11T11:58:35.808Z,3.10
2023-04-11T11:59:35.813Z,2.50
2023-04-11T12:00:35.840Z,3.10
2023-04-11T12:01:35.851Z,3.60
2023-04-11T12:02:36.003Z,2.50
2023-04-11T12:03:35.914Z,3.70
2023-04-11T12:04:35.888Z,2.70
2023-04-11T12:05:35.781Z,3.30
2023-04-11T12:06:35.796Z,2.40
2023-04-11T12:07:35.721Z,3.30
2023-04-11T12:08:35.728Z,2.70
2023-04-11T12:09:35.698Z,1.90
2023-04-11T12:10:35.671Z,3.50
2023-04-11T12:11:35.731Z,3.70
2023-04-11T12:12:35.724Z,3.30
2023-04-11T12:13:35.666Z,3.90
2023-04-11T12:14:35.642Z,2.50
2023-04-11T12:15:35.686Z,2.50
2023-04-11T12:16:35.989Z,2.30
2023-04-11T12:17:37.641Z,3.10
2023-04-11T12:18:35.606Z,2.60
2023-04-11T12:19:35.590Z,2.80
2023-04-11T12:20:35.650Z,3.40
2023-04-11T12:21:35.652Z,2.60
2023-04-11T12:22:35.588Z,3.10
2023-04-11T12:23:35.545Z,4.60
2023-04-11T12:24:35.537Z,3.20
2023-04-11T12:25:35.524Z,2.00
2023-04-11T12:26:35.609Z,2.00
2023-04-11T12:27:35.508Z,3.00
2023-04-11T12:28:36.539Z,2.80
2023-04-11T12:29:35.469Z,2.30
2023-04-11T12:30:35.471Z,2.80
2023-04-11T12:31:35.509Z,2.60
2023-04-11T12:32:35.572Z,2.40
2023-04-11T12:33:35.453Z,3.90
2023-04-11T12:34:35.444Z,2.60
2023-04-11T12:35:35.463Z,3.50
2023-04-11T12:36:35.482Z,3.10
2023-04-11T12:37:35.410Z,4.30
2023-04-11T12:38:35.400Z,3.00
2023-04-11T12:39:35.385Z,2.10
2023-04-11T12:40:35.355Z,2.70
2023-04-11T12:41:35.438Z,2.70
2023-04-11T12:42:36.871Z,3.80
2023-04-11T12:43:36.351Z,2.40
2023-04-11T12:44:35.442Z,3.50
2023-04-11T12:45:35.311Z,2.70
2023-04-11T12:46:35.317Z,2.00
2023-04-11T12:47:35.411Z,2.90
2023-04-11T12:48:35.277Z,2.80
2023-04-11T12:49:35.269Z,2.20
2023-04-11T12:50:35.310Z,2.80
2023-04-11T12:51:35.240Z,3.70
2023-04-11T12:52:35.260Z,2.80
2023-04-11T12:53:35.211Z,3.20
2023-04-11T12:54:35.209Z,1.80
2023-04-11T12:55:35.275Z,3.10
2023-04-11T12:56:35.189Z,3.50
2023-04-11T12:57:35.179Z,2.60
2023-04-11T12:58:35.203Z,1.90
2023-04-11T12:59:35.149Z,3.80
2023-04-11T13:00:35.353Z,2.20
2023-04-11T13:01:35.348Z,2.80
2023-04-11T13:02:42.069Z,4.40
2023-04-11T13:03:36.509Z,3.30
2023-04-11T13:04:35.243Z,3.40
2023-04-11T13:05:35.504Z,2.70
2023-04-11T13:06:35.135Z,3.90
2023-04-11T13:07:35.067Z,4.80
2023-04-11T13:08:35.062Z,1.80
2023-04-11T13:09:35.064Z,2.50
2023-04-11T13:10:35.096Z,2.70
2023-04-11T13:11:35.030Z,2.90
2023-04-11T13:12:35.032Z,1.90
2023-04-11T13:13:35.006Z,2.60
2023-04-11T13:14:35.040Z,2.00
2023-04-11T13:15:35.059Z,2.40
2023-04-11T13:16:35.000Z,3.70
2023-04-11T13:17:35.080Z,4.30
2023-04-11T13:18:34.953Z,2.50